Time;durP1;ratioP1;P1;durP2;ratioP2;P2;SDS_P1;SDS_P2;PMS_P1;PMS_P2;Temp;Humidity;BMP_temperature;BMP_pressure;BME280_temperature;BME280_humidity;BME280_pressure;Samples;Min_cycle;Max_cycle;Signal;HPM_P1;HPM_P2
2023/12/31 00:00:08;;;;;;;3.13;2.35;;;;;;;8.47;100.00;100314.53;5113636;27;20035;-60
2023/12/31 00:02:36;;;;;;;2.47;2.28;;;;;;;8.44;100.00;100298.81;5113409;27;20102;-60
2023/12/31 00:05:01;;;;;;;4.75;2.97;;;;;;;8.52;100.00;100299.19;5113860;27;20035;-60
2023/12/31 00:07:27;;;;;;;4.40;2.97;;;;;;;8.52;100.00;100288.59;5112508;28;20023;-60
2023/12/31 00:09:53;;;;;;;3.17;2.67;;;;;;;8.51;100.00;100273.66;5093241;28;20479;-60
2023/12/31 00:12:21;;;;;;;4.53;3.00;;;;;;;8.51;100.00;100260.41;5094208;28;20019;-60
2023/12/31 00:14:46;;;;;;;3.63;2.65;;;;;;;8.48;100.00;100261.44;5093945;28;20371;-60
2023/12/31 00:17:11;;;;;;;4.32;2.72;;;;;;;8.54;100.00;100260.22;5093976;28;20027;-60
2023/12/31 00:19:37;;;;;;;2.42;2.10;;;;;;;8.54;100.00;100260.22;5111934;28;20024;-60
2023/12/31 00:22:02;;;;;;;2.42;2.25;;;;;;;8.46;100.00;100233.34;5093628;28;20015;-60
2023/12/31 00:24:28;;;;;;;7.07;2.33;;;;;;;8.58;99.59;100227.25;5111363;28;20036;-60
2023/12/31 00:26:53;;;;;;;2.15;2.03;;;;;;;8.57;99.24;100244.09;5114762;27;20039;-60
2023/12/31 00:29:18;;;;;;;2.47;1.95;;;;;;;8.60;99.58;100231.50;5095776;28;20027;-60
2023/12/31 00:31:44;;;;;;;2.53;2.33;;;;;;;8.57;99.16;100218.44;5092720;28;20034;-60
2023/12/31 00:34:10;;;;;;;2.55;2.30;;;;;;;8.58;99.07;100208.69;5111781;28;20102;-60
2023/12/31 00:36:35;;;;;;;6.40;2.10;;;;;;;8.59;98.03;100219.22;5113975;27;20020;-60
2023/12/31 00:39:01;;;;;;;3.75;2.17;;;;;;;8.60;98.75;100212.09;5092816;28;20645;-60
2023/12/31 00:41:27;;;;;;;3.67;2.53;;;;;;;8.58;98.85;100211.34;5094554;27;20042;-60
2023/12/31 00:43:52;;;;;;;2.72;2.00;;;;;;;8.63;98.26;100206.59;5111290;28;20023;-60
2023/12/31 00:46:17;;;;;;;4.53;2.47;;;;;;;8.62;98.50;100195.16;5114832;27;20027;-60
2023/12/31 00:48:43;;;;;;;3.05;2.20;;;;;;;8.63;98.02;100196.84;5111501;28;20478;-60
2023/12/31 00:51:09;;;;;;;3.50;2.17;;;;;;;8.66;97.84;100190.50;5112940;27;20133;-60
2023/12/31 00:53:35;;;;;;;6.53;2.10;;;;;;;8.64;97.96;100184.44;5094930;28;20042;-60
2023/12/31 00:56:03;;;;;;;2.90;2.67;;;;;;;8.66;97.15;100190.50;5111265;27;20027;-60
2023/12/31 00:58:31;;;;;;;3.00;2.65;;;;;;;8.70;96.79;100193.78;5113827;27;20019;-60
2023/12/31 01:00:56;;;;;;;4.80;2.30;;;;;;;8.63;96.56;100182.75;5111431;28;20031;-60
2023/12/31 01:03:22;;;;;;;4.13;2.50;;;;;;;8.61;97.24;100182.84;5111610;28;20030;-60
2023/12/31 01:05:48;;;;;;;2.70;2.28;;;;;;;8.61;96.70;100180.19;5112983;27;20390;-60
2023/12/31 01:08:13;;;;;;;4.93;2.42;;;;;;;8.61;96.68;100182.84;5110897;28;20024;-60
2023/12/31 01:10:38;;;;;;;2.03;1.92;;;;;;;8.59;97.20;100168.00;5112217;28;20439;-60
2023/12/31 01:13:04;;;;;;;6.97;2.28;;;;;;;8.58;96.16;100153.88;5095921;28;20032;-60
2023/12/31 01:15:29;;;;;;;2.58;2.33;;;;;;;8.54;96.48;100151.56;5113797;27;20470;-60
2023/12/31 01:17:54;;;;;;;3.95;2.13;;;;;;;8.57;96.28;100146.88;5111458;28;20026;-60
2023/12/31 01:20:20;;;;;;;3.83;2.40;;;;;;;8.57;95.73;100146.03;5112795;28;20106;-60
2023/12/31 01:22:45;;;;;;;2.70;2.20;;;;;;;8.56;95.62;100153.16;5096574;28;20490;-60
2023/12/31 01:25:11;;;;;;;2.03;1.90;;;;;;;8.58;95.63;100139.78;5110622;28;20031;-60
2023/12/31 01:27:36;;;;;;;10.98;2.67;;;;;;;8.58;96.03;100135.31;5092444;28;20031;-60
2023/12/31 01:30:01;;;;;;;3.30;1.98;;;;;;;8.53;95.66;100110.94;5111094;28;20015;-60
2023/12/31 01:32:29;;;;;;;4.88;2.40;;;;;;;8.57;95.21;100122.19;5098461;28;20015;-60
2023/12/31 01:35:02;;;;;;;2.13;2.03;;;;;;;8.58;95.16;100123.88;5092396;28;20123;-60
2023/12/31 01:37:27;;;;;;;2.58;2.35;;;;;;;8.62;95.44;100125.41;5108681;28;20058;-60
2023/12/31 01:39:53;;;;;;;2.17;2.05;;;;;;;8.58;94.85;100119.41;5091989;28;20047;-60
2023/12/31 01:42:18;;;;;;;2.47;2.28;;;;;;;8.56;95.13;100117.81;5094188;28;20433;-60
2023/12/31 01:44:43;;;;;;;2.90;2.30;;;;;;;8.55;94.65;100103.72;5114875;27;20381;-60
2023/12/31 01:47:09;;;;;;;3.83;2.08;;;;;;;8.56;95.01;100102.78;5117321;27;20027;-60
2023/12/31 01:49:35;;;;;;;2.45;2.25;;;;;;;8.48;95.14;100093.66;5116135;27;20094;-60
2023/12/31 01:52:02;;;;;;;3.90;2.50;;;;;;;8.53;94.97;100102.13;5115385;27;20040;-60
2023/12/31 01:54:28;;;;;;;2.15;2.05;;;;;;;8.52;95.61;100092.47;5096927;28;20500;-60
2023/12/31 01:56:56;;;;;;;2.22;2.03;;;;;;;8.50;95.55;100086.44;5096493;28;20051;-60
2023/12/31 01:59:22;;;;;;;3.78;2.38;;;;;;;8.45;95.39;100073.50;5100302;28;20016;-60
2023/12/31 02:01:48;;;;;;;2.40;2.20;;;;;;;8.50;95.42;100075.81;5115748;27;20034;-60
2023/12/31 02:04:15;;;;;;;3.42;2.20;;;;;;;8.49;95.20;100079.44;5114488;28;20028;-60
2023/12/31 02:06:43;;;;;;;2.55;2.35;;;;;;;8.48;94.83;100077.75;5115223;27;20080;-60
2023/12/31 02:09:09;;;;;;;2.85;2.10;;;;;;;8.44;95.16;100063.00;5095676;27;20034;-60
2023/12/31 02:11:38;;;;;;;5.10;2.25;;;;;;;8.46;94.57;100061.94;5096903;28;20019;-60
2023/12/31 02:14:05;;;;;;;2.28;2.17;;;;;;;8.49;94.79;100066.19;5114195;27;20027;-60
2023/12/31 02:16:31;;;;;;;2.67;2.47;;;;;;;8.45;94.66;100056.75;5115997;27;20016;-60
2023/12/31 02:18:57;;;;;;;2.45;2.25;;;;;;;8.48;95.12;100053.91;5115391;27;20035;-60
2023/12/31 02:21:25;;;;;;;2.55;2.25;;;;;;;8.46;94.79;100046.03;5096141;28;20020;-60
2023/12/31 02:23:50;;;;;;;2.20;2.10;;;;;;;8.46;94.47;100038.09;5095985;28;20035;-60
2023/12/31 02:26:17;;;;;;;2.30;2.10;;;;;;;8.48;94.45;100041.50;5116629;27;20027;-60
2023/12/31 02:28:42;;;;;;;3.22;2.25;;;;;;;8.48;94.04;100038.84;5114059;27;20019;-61
2023/12/31 02:31:08;;;;;;;2.63;2.42;;;;;;;8.43;94.55;100017.09;5116504;27;20020;-60
2023/12/31 02:33:33;;;;;;;2.88;2.25;;;;;;;8.50;94.22;100010.44;5098027;28;20027;-60
2023/12/31 02:35:59;;;;;;;3.25;2.60;;;;;;;8.52;94.28;100010.34;5097152;28;20023;-60
2023/12/31 02:38:24;;;;;;;2.45;2.25;;;;;;;8.49;94.38;100008.72;5095582;28;20023;-60
2023/12/31 02:40:52;;;;;;;2.63;2.30;;;;;;;8.50;94.26;99996.31;5113487;27;20030;-60
2023/12/31 02:43:18;;;;;;;3.42;2.50;;;;;;;8.50;93.80;99991.03;5114503;27;20016;-60
2023/12/31 02:45:43;;;;;;;4.07;2.28;;;;;;;8.48;93.85;99977.91;5098013;28;20034;-60
2023/12/31 02:48:09;;;;;;;4.15;2.72;;;;;;;8.48;94.12;99985.84;5113171;28;20031;-60
2023/12/31 02:50:34;;;;;;;2.63;2.42;;;;;;;8.29;94.20;99932.38;5113934;28;20122;-60
2023/12/31 02:53:00;;;;;;;4.97;2.20;;;;;;;8.47;94.22;99965.63;5117263;27;20470;-60
2023/12/31 02:55:25;;;;;;;2.20;2.10;;;;;;;8.46;94.58;99957.75;5095321;28;20526;-60
2023/12/31 02:57:50;;;;;;;3.25;2.55;;;;;;;8.50;94.00;99960.09;5095337;28;20076;-60
2023/12/31 03:00:16;;;;;;;2.90;2.70;;;;;;;8.48;93.96;99958.50;5113971;28;20026;-60
2023/12/31 03:02:41;;;;;;;4.55;2.70;;;;;;;8.45;94.32;99938.34;5113329;27;20031;-60
2023/12/31 03:05:08;;;;;;;2.10;1.88;;;;;;;8.50;94.77;99948.63;5116067;27;20030;-60
2023/12/31 03:07:34;;;;;;;2.50;2.30;;;;;;;8.50;94.23;99930.94;5113838;27;20096;-60
2023/12/31 03:09:59;;;;;;;2.75;2.55;;;;;;;8.52;94.17;99938.78;5122239;27;20259;-60
2023/12/31 03:12:24;;;;;;;2.72;2.53;;;;;;;8.50;94.51;99928.31;5120022;27;20474;-60
2023/12/31 03:14:50;;;;;;;2.72;2.10;;;;;;;8.46;94.44;99913.53;5124094;27;20027;-60
2023/12/31 03:17:15;;;;;;;3.00;2.67;;;;;;;8.49;94.42;99913.34;5131671;27;20401;-60
2023/12/31 03:19:40;;;;;;;6.20;2.47;;;;;;;8.43;94.62;99894.38;5134565;27;20065;-60
2023/12/31 03:22:06;;;;;;;2.70;2.50;;;;;;;8.49;94.44;99892.13;5099017;28;20104;-60
2023/12/31 03:24:31;;;;;;;2.75;2.55;;;;;;;8.48;94.70;99885.16;5113822;27;20020;-60
2023/12/31 03:26:57;;;;;;;2.50;2.30;;;;;;;8.46;94.36;99881.75;5115902;27;20477;-60
2023/12/31 03:29:22;;;;;;;2.22;2.13;;;;;;;8.44;94.43;99874.84;5115993;27;20022;-60
2023/12/31 03:31:48;;;;;;;3.72;2.75;;;;;;;8.44;94.19;99859.81;5111066;28;20286;-60
2023/12/31 03:34:13;;;;;;;2.10;2.00;;;;;;;8.43;94.07;99849.31;5095441;28;20046;-60
2023/12/31 03:36:38;;;;;;;2.35;2.22;;;;;;;8.37;94.37;99843.47;5113879;28;20020;-61
2023/12/31 03:39:06;;;;;;;3.05;2.75;;;;;;;8.42;94.56;99829.94;5113564;27;20055;-60
2023/12/31 03:41:32;;;;;;;3.20;2.50;;;;;;;8.44;93.99;99833.31;5096498;27;20390;-60
2023/12/31 03:44:00;;;;;;;2.53;2.33;;;;;;;8.45;94.42;99824.41;5122146;27;20016;-60
2023/12/31 03:46:28;;;;;;;3.13;2.30;;;;;;;8.44;94.35;99816.56;5106746;28;20031;-60
2023/12/31 03:48:53;;;;;;;2.50;2.30;;;;;;;8.41;94.39;99807.03;5113580;28;20055;-60
2023/12/31 03:51:21;;;;;;;2.30;2.10;;;;;;;8.37;94.36;99798.44;5133777;27;20455;-60
2023/12/31 03:53:46;;;;;;;2.97;2.42;;;;;;;8.38;94.75;99799.25;5123422;27;20038;-60
2023/12/31 03:56:12;;;;;;;2.63;2.25;;;;;;;8.41;94.40;99799.94;5117771;27;20024;-60
2023/12/31 03:58:37;;;;;;;2.47;2.38;;;;;;;8.46;94.43;99790.81;5123486;27;20019;-60
2023/12/31 04:01:03;;;;;;;2.40;2.20;;;;;;;8.47;94.79;99784.56;5113974;27;20024;-60
2023/12/31 04:03:29;;;;;;;3.13;2.60;;;;;;;8.48;94.14;99784.47;5110720;28;20019;-60
2023/12/31 04:05:54;;;;;;;3.33;2.60;;;;;;;8.46;94.46;99777.56;5114159;27;20031;-60
2023/12/31 04:08:19;;;;;;;3.28;2.55;;;;;;;8.47;94.68;99766.00;5095341;28;20035;-60
2023/12/31 04:10:45;;;;;;;2.70;2.50;;;;;;;8.47;94.63;99763.34;5112947;27;20035;-60
2023/12/31 04:13:10;;;;;;;2.80;2.60;;;;;;;8.42;94.67;99755.75;5095109;28;20106;-60
2023/12/31 04:15:36;;;;;;;2.72;2.53;;;;;;;8.47;94.11;99758.94;5124290;27;20028;-60
2023/12/31 04:18:03;;;;;;;2.35;2.25;;;;;;;8.45;93.84;99741.44;5124029;27;20485;-60
2023/12/31 04:20:29;;;;;;;4.30;2.50;;;;;;;8.48;94.30;99741.22;5116961;27;20363;-60
2023/12/31 04:22:57;;;;;;;2.50;2.40;;;;;;;8.37;94.90;99731.34;5117603;27;20160;-60
2023/12/31 04:25:25;;;;;;;3.10;2.33;;;;;;;8.44;94.37;99734.44;5121020;27;20027;-60
2023/12/31 04:27:53;;;;;;;3.28;2.63;;;;;;;8.40;94.42;99726.69;5121921;27;20130;-60
2023/12/31 04:30:22;;;;;;;2.70;2.35;;;;;;;8.40;94.45;99725.88;5103713;27;20545;-60
2023/12/31 04:32:48;;;;;;;2.53;2.30;;;;;;;8.30;95.14;99708.91;5124288;27;20027;-60
2023/12/31 04:35:13;;;;;;;4.07;2.78;;;;;;;8.36;94.46;99727.84;5112269;28;20050;-60
2023/12/31 04:37:38;;;;;;;3.28;2.72;;;;;;;8.33;94.23;99708.69;5112902;28;20389;-60
2023/12/31 04:40:05;;;;;;;7.47;2.70;;;;;;;8.36;94.57;99719.91;5093984;28;20027;-60
2023/12/31 04:42:30;;;;;;;3.92;2.50;;;;;;;8.37;94.73;99724.25;5079733;27;20027;-60
2023/12/31 04:44:59;;;;;;;7.95;3.28;;;;;;;8.31;95.16;99703.50;5097908;28;20024;-60
2023/12/31 04:47:24;;;;;;;4.95;3.90;;;;;;;8.34;94.77;99694.47;5106156;27;20076;-60
2023/12/31 04:49:50;;;;;;;3.05;2.45;;;;;;;8.36;94.26;99693.41;5096114;27;20032;-61
2023/12/31 04:52:15;;;;;;;4.88;2.70;;;;;;;8.39;94.57;99690.56;5131275;27;20079;-60
2023/12/31 04:54:41;;;;;;;2.85;2.70;;;;;;;8.39;95.04;99689.75;5115095;27;20084;-60
2023/12/31 04:57:07;;;;;;;3.53;2.50;;;;;;;8.40;94.79;99681.66;5093896;28;20501;-60
2023/12/31 04:59:32;;;;;;;2.92;2.40;;;;;;;8.38;94.91;99683.59;5102326;27;20023;-60
2023/12/31 05:01:58;;;;;;;3.30;2.63;;;;;;;8.41;95.02;99674.56;5130999;27;20431;-60
2023/12/31 05:04:23;;;;;;;2.70;2.50;;;;;;;8.42;95.14;99673.63;5106914;28;20507;-60
2023/12/31 05:06:48;;;;;;;3.25;2.78;;;;;;;8.45;95.19;99675.19;5093747;28;20019;-60
2023/12/31 05:09:14;;;;;;;2.67;2.47;;;;;;;8.44;94.79;99665.53;5111935;27;20027;-60
2023/12/31 05:11:39;;;;;;;3.90;2.60;;;;;;;8.46;95.05;99661.81;5112257;28;20054;-60
2023/12/31 05:14:05;;;;;;;4.00;3.15;;;;;;;8.48;95.25;99664.38;5127438;27;20110;-60
2023/12/31 05:16:31;;;;;;;3.00;2.70;;;;;;;8.47;95.31;99658.22;5107835;28;20027;-60
2023/12/31 05:18:58;;;;;;;3.50;3.20;;;;;;;8.46;95.38;99648.56;5126710;27;20023;-60
2023/12/31 05:21:24;;;;;;;3.13;2.83;;;;;;;8.48;94.98;99636.06;5127876;27;20537;-60
2023/12/31 05:23:49;;;;;;;3.15;2.65;;;;;;;8.51;94.66;99630.53;5102211;27;20061;-60
2023/12/31 05:26:15;;;;;;;4.00;2.75;;;;;;;8.46;94.74;99606.19;5103806;28;20409;-60
2023/12/31 05:28:40;;;;;;;2.90;2.70;;;;;;;8.51;95.42;99630.53;5118788;27;20024;-60
2023/12/31 05:31:06;;;;;;;2.95;2.72;;;;;;;8.52;95.06;99626.09;5114302;28;20034;-60
2023/12/31 05:33:31;;;;;;;3.00;2.80;;;;;;;8.43;95.18;99603.75;5100911;27;20035;-60
2023/12/31 05:35:57;;;;;;;3.17;2.88;;;;;;;8.51;95.77;99606.69;5121455;27;20026;-60
2023/12/31 05:38:22;;;;;;;3.60;2.45;;;;;;;8.51;95.44;99596.09;5093408;28;20128;-60
2023/12/31 05:40:48;;;;;;;4.43;3.15;;;;;;;8.53;95.57;99612.72;5113350;28;20030;-60
2023/12/31 05:43:13;;;;;;;2.63;2.50;;;;;;;8.53;95.65;99596.84;5094110;28;20023;-60
2023/12/31 05:45:38;;;;;;;2.78;2.58;;;;;;;8.49;95.32;99591.88;5098298;28;20027;-60
2023/12/31 05:48:04;;;;;;;2.92;2.72;;;;;;;8.49;95.03;99573.31;5112883;28;20035;-60
2023/12/31 05:50:32;;;;;;;4.00;2.85;;;;;;;8.56;94.73;99580.69;5093154;28;20480;-60
2023/12/31 05:52:57;;;;;;;2.78;2.58;;;;;;;8.55;95.51;99584.28;5122636;28;20478;-60
2023/12/31 05:55:25;;;;;;;3.42;3.05;;;;;;;8.58;95.10;99585.88;5111934;28;20026;-60
2023/12/31 05:57:51;;;;;;;3.00;2.80;;;;;;;8.59;95.11;99585.78;5131875;28;20046;-60
2023/12/31 06:00:17;;;;;;;3.35;3.05;;;;;;;8.60;94.65;99592.75;5117526;28;20104;-60
2023/12/31 06:02:44;;;;;;;3.75;2.42;;;;;;;8.61;95.27;99575.03;5117832;28;20015;-60
2023/12/31 06:05:12;;;;;;;3.08;2.88;;;;;;;8.58;95.08;99568.16;5102497;28;20069;-60
2023/12/31 06:07:40;;;;;;;3.33;3.10;;;;;;;8.59;95.04;99569.03;5112207;28;20047;-60
2023/12/31 06:10:08;;;;;;;6.22;2.92;;;;;;;8.58;95.23;99567.31;5119888;28;20032;-60
2023/12/31 06:12:34;;;;;;;2.80;2.60;;;;;;;8.57;94.93;99552.38;5122881;28;20110;-60
2023/12/31 06:14:59;;;;;;;3.33;2.78;;;;;;;8.51;95.03;99555.50;5126585;28;20102;-59
2023/12/31 06:17:26;;;;;;;3.38;2.97;;;;;;;8.57;95.47;99544.44;5117815;28;20486;-60
2023/12/31 06:19:51;;;;;;;3.30;3.00;;;;;;;8.54;94.74;99542.03;5094042;28;20020;-60
2023/12/31 06:22:17;;;;;;;3.10;2.90;;;;;;;8.57;94.58;99544.44;5111953;28;20024;-60
2023/12/31 06:24:42;;;;;;;3.35;3.03;;;;;;;8.54;95.05;99540.22;5123101;28;20098;-60
2023/12/31 06:27:07;;;;;;;3.65;3.03;;;;;;;8.59;95.06;99529.28;5094371;28;20039;-60
2023/12/31 06:29:38;;;;;;;5.55;3.00;;;;;;;8.58;95.01;99525.75;5115135;27;20027;-60
2023/12/31 06:32:03;;;;;;;3.30;3.00;;;;;;;8.56;95.08;99522.41;5122269;27;20493;-60
2023/12/31 06:34:29;;;;;;;2.92;2.70;;;;;;;8.67;94.23;99515.41;5115273;27;20023;-60
2023/12/31 06:36:54;;;;;;;3.40;3.10;;;;;;;8.62;94.80;99505.19;5129437;27;20030;-60
2023/12/31 06:39:19;;;;;;;3.63;3.33;;;;;;;8.68;94.16;99503.84;5102526;28;20027;-60
2023/12/31 06:41:45;;;;;;;2.78;2.58;;;;;;;8.67;93.67;99488.91;5129439;27;20019;-60
2023/12/31 06:44:12;;;;;;;3.53;2.97;;;;;;;8.77;94.05;99503.16;5109090;27;20034;-60
2023/12/31 06:46:38;;;;;;;5.10;3.10;;;;;;;8.81;92.98;99492.19;5127458;27;20024;-60
2023/12/31 06:49:03;;;;;;;2.88;2.67;;;;;;;8.81;93.28;99478.94;5115597;27;20084;-60
2023/12/31 06:51:29;;;;;;;2.95;2.65;;;;;;;8.83;93.30;99471.72;5135102;27;20051;-60
2023/12/31 06:53:54;;;;;;;3.10;2.80;;;;;;;8.89;93.02;99473.03;5115771;27;20107;-60
2023/12/31 06:56:19;;;;;;;2.92;2.70;;;;;;;8.85;93.29;99471.56;5112993;27;20466;-60
2023/12/31 06:58:45;;;;;;;3.13;2.92;;;;;;;8.90;92.84;99469.41;5123054;27;20482;-60
2023/12/31 07:01:10;;;;;;;3.42;3.10;;;;;;;8.98;92.25;99467.00;5129026;27;20054;-60
2023/12/31 07:03:35;;;;;;;2.95;2.67;;;;;;;8.97;92.20;99454.72;5114587;28;20023;-60
2023/12/31 07:06:01;;;;;;;2.92;2.70;;;;;;;9.00;92.54;99465.09;5102589;27;20386;-60
2023/12/31 07:08:27;;;;;;;2.85;2.65;;;;;;;9.12;92.16;99465.94;5131310;27;20023;-60
2023/12/31 07:10:53;;;;;;;3.95;2.90;;;;;;;9.04;92.36;99452.44;5114876;27;20359;-60
2023/12/31 07:13:21;;;;;;;2.58;2.38;;;;;;;9.08;92.41;99451.22;5103921;27;20132;-60
2023/12/31 07:15:49;;;;;;;3.03;2.83;;;;;;;9.12;91.95;99443.84;5114443;28;20028;-60
2023/12/31 07:18:14;;;;;;;3.10;2.90;;;;;;;9.13;91.88;99440.25;5114579;27;20020;-60
2023/12/31 07:20:40;;;;;;;2.80;2.60;;;;;;;9.10;91.69;99428.06;5115557;27;20034;-60
2023/12/31 07:23:05;;;;;;;3.40;3.03;;;;;;;9.16;91.88;99426.75;5127214;27;20023;-60
2023/12/31 07:25:32;;;;;;;2.90;2.70;;;;;;;9.18;91.23;99430.13;5098061;28;20363;-60
2023/12/31 07:27:58;;;;;;;3.25;2.97;;;;;;;9.19;91.52;99427.34;5079156;28;20020;-60
2023/12/31 07:30:24;;;;;;;3.53;3.10;;;;;;;9.29;91.11;99422.13;5126861;27;20022;-60
2023/12/31 07:32:50;;;;;;;4.13;2.83;;;;;;;9.28;90.64;99407.19;5106926;27;20080;-60
2023/12/31 07:35:15;;;;;;;6.40;4.47;;;;;;;9.30;90.68;99406.09;5129326;27;20019;-60
2023/12/31 07:37:40;;;;;;;3.00;2.80;;;;;;;9.29;90.65;99401.75;5120177;27;20547;-60
2023/12/31 07:40:07;;;;;;;3.85;2.92;;;;;;;9.37;90.64;99408.25;5094983;28;20035;-60
2023/12/31 07:42:34;;;;;;;3.20;2.97;;;;;;;9.37;90.26;99409.09;5101537;27;20148;-60
2023/12/31 07:44:59;;;;;;;3.95;3.45;;;;;;;9.38;90.25;99409.91;5118512;27;20477;-60
2023/12/31 07:47:25;;;;;;;3.20;2.97;;;;;;;9.41;90.53;99397.28;5102570;28;20027;-60
2023/12/31 07:49:51;;;;;;;4.40;3.80;;;;;;;9.45;90.53;99400.50;5121586;27;20023;-60
2023/12/31 07:52:17;;;;;;;7.18;4.45;;;;;;;9.47;90.24;99399.41;5110847;28;20047;-60
2023/12/31 07:54:42;;;;;;;6.22;5.63;;;;;;;9.57;89.23;99398.66;5098875;27;20015;-60
2023/12/31 07:57:08;;;;;;;3.30;3.00;;;;;;;9.56;89.57;99403.13;5113233;28;20155;-60
2023/12/31 07:59:35;;;;;;;4.63;3.05;;;;;;;9.57;90.08;99386.22;5114487;27;20028;-60
2023/12/31 08:02:02;;;;;;;2.95;2.70;;;;;;;9.60;90.09;99393.09;5113729;28;20028;-60
2023/12/31 08:04:30;;;;;;;3.40;3.10;;;;;;;9.59;90.92;99389.59;5114379;27;20020;-60
2023/12/31 08:06:55;;;;;;;2.97;2.75;;;;;;;9.65;90.08;99382.94;5106545;27;20501;-60
2023/12/31 08:09:20;;;;;;;8.02;3.05;;;;;;;9.57;90.09;99385.38;5121570;27;20023;-60
2023/12/31 08:11:46;;;;;;;3.03;2.80;;;;;;;9.59;91.32;99378.13;5093823;28;20118;-60
2023/12/31 08:14:12;;;;;;;3.00;2.80;;;;;;;9.54;91.20;99363.44;5114623;27;20022;-60
2023/12/31 08:16:37;;;;;;;2.97;2.78;;;;;;;9.64;90.05;99387.38;5114899;27;20011;-60
2023/12/31 08:19:04;;;;;;;3.00;2.80;;;;;;;9.64;91.59;99384.75;5096758;27;20023;-60
2023/12/31 08:21:32;;;;;;;3.17;2.50;;;;;;;9.68;91.67;99386.19;5113054;27;20095;-60
2023/12/31 08:23:58;;;;;;;5.15;3.13;;;;;;;9.66;91.93;99384.63;5095524;28;20015;-60
2023/12/31 08:26:25;;;;;;;3.90;3.60;;;;;;;9.61;92.56;99376.19;5120659;27;20034;-60
2023/12/31 08:28:50;;;;;;;3.08;2.88;;;;;;;9.67;92.66;99383.66;5114106;27;20396;-60
2023/12/31 08:31:16;;;;;;;2.80;2.60;;;;;;;9.58;93.58;99381.75;5096003;28;20033;-60
2023/12/31 08:33:43;;;;;;;3.28;2.97;;;;;;;9.59;94.34;99373.69;5096704;27;20479;-60
2023/12/31 08:36:08;;;;;;;3.45;3.15;;;;;;;9.53;95.30;99390.94;5106189;28;20095;-60
2023/12/31 08:38:34;;;;;;;4.32;3.92;;;;;;;9.40;97.16;99379.66;5094141;28;20458;-60
2023/12/31 08:41:00;;;;;;;3.00;2.80;;;;;;;9.47;96.70;99369.34;5097100;28;20024;-60
2023/12/31 08:43:25;;;;;;;3.85;2.90;;;;;;;9.37;99.02;99385.19;5094197;28;20292;-60
2023/12/31 08:45:51;;;;;;;3.15;2.88;;;;;;;9.33;99.58;99389.91;5093237;28;20040;-60
2023/12/31 08:48:21;;;;;;;5.50;3.75;;;;;;;9.28;100.00;99370.03;5111028;28;20098;-60
2023/12/31 08:50:46;;;;;;;3.22;3.00;;;;;;;9.26;100.00;99386.06;5092498;28;20063;-60
2023/12/31 08:53:12;;;;;;;3.20;3.00;;;;;;;9.24;100.00;99381.88;5092082;28;20070;-60
2023/12/31 08:55:37;;;;;;;4.47;4.07;;;;;;;9.12;100.00;99377.53;5111995;28;20100;-60
2023/12/31 08:58:05;;;;;;;3.15;2.85;;;;;;;9.12;100.00;99380.19;5094053;28;20014;-60
2023/12/31 09:00:31;;;;;;;2.70;2.50;;;;;;;9.09;100.00;99378.66;5112081;28;20034;-60
2023/12/31 09:02:56;;;;;;;3.00;2.70;;;;;;;9.10;100.00;99390.94;5093989;28;20032;-60
2023/12/31 09:05:22;;;;;;;3.85;2.85;;;;;;;9.07;100.00;99391.19;5094017;28;20382;-60
2023/12/31 09:07:48;;;;;;;5.10;3.05;;;;;;;9.03;100.00;99406.50;5112198;28;20062;-60
2023/12/31 09:10:16;;;;;;;3.17;2.97;;;;;;;9.02;100.00;99401.31;5111933;28;20043;-60
2023/12/31 09:12:41;;;;;;;4.70;4.22;;;;;;;8.97;100.00;99406.13;5111928;27;20382;-60
2023/12/31 09:15:09;;;;;;;6.13;4.80;;;;;;;8.94;100.00;99395.78;5117728;27;20019;-60
2023/12/31 09:17:35;;;;;;;3.60;3.30;;;;;;;8.93;100.00;99410.84;5104786;28;20008;-60
2023/12/31 09:20:05;;;;;;;3.50;3.20;;;;;;;8.89;100.00;99406.75;5100748;27;20392;-60
2023/12/31 09:22:31;;;;;;;3.35;3.05;;;;;;;8.93;100.00;99410.84;5128085;27;20055;-60
2023/12/31 09:24:56;;;;;;;3.10;2.47;;;;;;;8.82;100.00;99397.59;5093186;28;20085;-60
2023/12/31 09:27:21;;;;;;;2.55;2.33;;;;;;;8.95;100.00;99416.88;5093755;28;20529;-60
2023/12/31 09:29:47;;;;;;;2.80;2.60;;;;;;;8.89;100.00;99412.06;5093851;28;20042;-60
2023/12/31 09:32:12;;;;;;;2.53;2.33;;;;;;;8.96;100.00;99409.75;5113257;27;20382;-60
2023/12/31 09:34:38;;;;;;;2.65;2.45;;;;;;;8.94;100.00;99425.81;5109858;27;20022;-60
2023/12/31 09:37:03;;;;;;;2.45;2.25;;;;;;;8.93;100.00;99425.91;5101901;28;20023;-60
2023/12/31 09:39:29;;;;;;;2.15;2.05;;;;;;;8.93;99.74;99428.56;5122962;27;20371;-60
2023/12/31 09:42:04;;;;;;;2.88;2.30;;;;;;;8.93;99.91;99444.47;5113895;28;20031;-60
2023/12/31 09:44:29;;;;;;;2.45;2.30;;;;;;;8.95;98.90;99438.09;5132351;28;20027;-60
2023/12/31 09:47:06;;;;;;;2.08;1.98;;;;;;;8.96;98.71;99431.81;5098507;28;20034;-60
2023/12/31 09:49:34;;;;;;;2.20;2.10;;;;;;;8.95;98.04;99445.22;5094715;28;20602;-60
2023/12/31 09:52:01;;;;;;;2.17;2.00;;;;;;;8.99;97.31;99436.88;5111199;28;20273;-60
2023/12/31 09:54:28;;;;;;;2.25;2.00;;;;;;;8.97;97.54;99460.03;5114554;28;20034;-60
2023/12/31 09:56:56;;;;;;;2.05;1.95;;;;;;;9.02;96.50;99454.34;5093610;28;20019;-60
2023/12/31 09:59:24;;;;;;;3.88;2.17;;;;;;;8.96;95.74;99458.31;5111421;28;20015;-60
2023/12/31 10:01:52;;;;;;;2.10;1.98;;;;;;;9.04;95.00;99460.38;5112921;28;20020;-60
2023/12/31 10:04:18;;;;;;;2.20;2.10;;;;;;;9.01;95.79;99453.50;5096381;28;20027;-61
2023/12/31 10:06:43;;;;;;;1.98;1.75;;;;;;;9.08;95.10;99448.56;5116538;27;20023;-60
2023/12/31 10:09:11;;;;;;;2.08;1.90;;;;;;;9.05;94.16;99446.16;5099084;28;20020;-60
2023/12/31 10:11:38;;;;;;;2.15;2.05;;;;;;;9.24;91.88;99446.38;5096881;28;20474;-60
2023/12/31 10:14:03;;;;;;;2.22;2.13;;;;;;;9.15;91.89;99448.91;5101297;28;20026;-61
2023/12/31 10:16:40;;;;;;;4.93;2.00;;;;;;;9.12;92.07;99443.84;5115091;28;20445;-61
2023/12/31 10:19:06;;;;;;;3.05;2.15;;;;;;;9.16;92.26;99445.31;5115779;28;20032;-61
2023/12/31 10:21:31;;;;;;;2.90;2.20;;;;;;;9.14;93.37;99450.72;5096624;28;20497;-60
2023/12/31 10:23:56;;;;;;;3.92;2.55;;;;;;;9.06;94.38;99446.03;5114973;28;20031;-60
2023/12/31 10:26:22;;;;;;;2.53;2.05;;;;;;;9.04;96.16;99440.00;5123443;27;20106;-60
2023/12/31 10:28:50;;;;;;;3.42;2.63;;;;;;;8.95;97.66;99446.03;5099125;28;20039;-60
2023/12/31 10:31:15;;;;;;;5.57;1.95;;;;;;;8.84;99.04;99441.56;5115693;28;20047;-60
2023/12/31 10:33:40;;;;;;;2.28;2.10;;;;;;;8.77;99.86;99442.19;5097151;28;20051;-60
2023/12/31 10:36:06;;;;;;;2.50;1.90;;;;;;;8.79;100.00;99445.56;5104202;27;20128;-60
2023/12/31 10:38:45;;;;;;;4.03;2.08;;;;;;;8.76;100.00;99453.75;5129785;27;20019;-61
2023/12/31 10:41:17;;;;;;;3.17;2.60;;;;;;;8.71;100.00;99451.47;5115245;28;20099;-61
2023/12/31 10:43:44;;;;;;;4.07;2.47;;;;;;;8.59;100.00;99439.19;5119570;27;20019;-60
2023/12/31 10:46:16;;;;;;;3.03;2.13;;;;;;;8.52;100.00;99462.63;5119372;27;20016;-61
2023/12/31 10:49:06;;;;;;;4.13;2.10;;;;;;;8.52;100.00;99454.69;5095163;28;20019;-60
2023/12/31 10:51:35;;;;;;;4.95;2.20;;;;;;;8.56;100.00;99449.97;5110598;28;20549;-60
2023/12/31 10:54:06;;;;;;;5.47;2.37;;;;;;;8.55;100.00;99453.59;5113696;27;20173;-60
2023/12/31 10:56:32;;;;;;;2.85;2.17;;;;;;;8.50;100.00;99463.69;5113598;27;20381;-60
2023/12/31 10:58:58;;;;;;;3.00;1.90;;;;;;;8.59;100.00;99442.66;5094672;28;20023;-60
2023/12/31 11:01:26;;;;;;;2.13;2.03;;;;;;;8.65;100.00;99441.34;5096574;27;20495;-60
2023/12/31 11:03:53;;;;;;;5.47;2.20;;;;;;;8.81;100.00;99438.34;5094614;28;20481;-60
2023/12/31 11:06:19;;;;;;;2.28;2.03;;;;;;;8.84;100.00;99441.56;5094906;28;20065;-60
2023/12/31 11:08:46;;;;;;;5.00;2.88;;;;;;;8.87;100.00;99446.63;5089970;27;20070;-60
2023/12/31 11:11:13;;;;;;;2.70;2.17;;;;;;;8.89;100.00;99458.94;5119643;27;20024;-60
2023/12/31 11:13:42;;;;;;;2.67;2.10;;;;;;;8.94;100.00;99449.66;5112733;28;20160;-60
2023/12/31 11:16:37;;;;;;;5.03;2.35;;;;;;;8.86;100.00;99457.38;5099999;28;20030;-59
2023/12/31 11:19:50;;;;;;;2.40;2.17;;;;;;;8.96;100.00;99466.28;5086382;27;20036;-60
2023/12/31 11:22:53;;;;;;;2.28;2.17;;;;;;;9.20;100.00;99462.66;5041246;27;20036;-59
2023/12/31 11:25:22;;;;;;;3.53;2.08;;;;;;;9.43;99.08;99450.19;5101256;28;20028;-60
2023/12/31 11:27:57;;;;;;;2.10;2.00;;;;;;;9.62;98.05;99455.72;5094730;27;20524;-60
2023/12/31 11:30:47;;;;;;;5.55;2.20;;;;;;;9.81;96.49;99476.28;5108840;27;20020;-60
2023/12/31 11:33:20;;;;;;;2.50;1.77;;;;;;;9.52;94.11;99479.47;5099953;27;20482;-60
2023/12/31 11:35:48;;;;;;;2.17;1.55;;;;;;;9.53;95.58;99477.69;5094819;28;20020;-60